sensor_id;sensor_type;location;lat;lon;timestamp;P1;durP1;ratioP1;P2;durP2;ratioP2
6197;SDS011;3132;42.622;23.328;2023-06-24T00:01:11;17.85;;;15.85;;
6197;SDS011;3132;42.622;23.328;2023-06-24T00:03:38;18.30;;;16.60;;
6197;SDS011;3132;42.622;23.328;2023-06-24T00:06:03;18.48;;;16.58;;
6197;SDS011;3132;42.622;23.328;2023-06-24T00:08:28;18.45;;;16.15;;
6197;SDS011;3132;42.622;23.328;2023-06-24T00:10:59;15.82;;;14.45;;
6197;SDS011;3132;42.622;23.328;2023-06-24T00:13:27;22.95;;;16.75;;
6197;SDS011;3132;42.622;23.328;2023-06-24T00:15:54;17.40;;;14.38;;
6197;SDS011;3132;42.622;23.328;2023-06-24T00:18:19;17.73;;;16.02;;
6197;SDS011;3132;42.622;23.328;2023-06-24T00:20:45;18.80;;;16.50;;
6197;SDS011;3132;42.622;23.328;2023-06-24T00:23:11;21.60;;;16.08;;
6197;SDS011;3132;42.622;23.328;2023-06-24T00:25:42;19.65;;;16.20;;
6197;SDS011;3132;42.622;23.328;2023-06-24T00:28:07;17.73;;;16.00;;
6197;SDS011;3132;42.622;23.328;2023-06-24T00:30:33;17.70;;;16.00;;
6197;SDS011;3132;42.622;23.328;2023-06-24T00:32:58;16.98;;;15.32;;
6197;SDS011;3132;42.622;23.328;2023-06-24T00:35:23;17.95;;;15.75;;
6197;SDS011;3132;42.622;23.328;2023-06-24T00:37:49;20.63;;;15.85;;
6197;SDS011;3132;42.622;23.328;2023-06-24T00:40:14;17.73;;;15.93;;
6197;SDS011;3132;42.622;23.328;2023-06-24T00:42:42;18.65;;;16.30;;
6197;SDS011;3132;42.622;23.328;2023-06-24T00:45:10;19.02;;;16.63;;
6197;SDS011;3132;42.622;23.328;2023-06-24T00:47:36;20.48;;;18.40;;
6197;SDS011;3132;42.622;23.328;2023-06-24T00:50:02;21.83;;;16.90;;
6197;SDS011;3132;42.622;23.328;2023-06-24T00:52:27;18.75;;;16.85;;
6197;SDS011;3132;42.622;23.328;2023-06-24T00:54:53;19.08;;;16.52;;
6197;SDS011;3132;42.622;23.328;2023-06-24T00:57:18;17.98;;;16.10;;
6197;SDS011;3132;42.622;23.328;2023-06-24T00:59:48;17.80;;;15.77;;
6197;SDS011;3132;42.622;23.328;2023-06-24T01:02:17;17.27;;;15.57;;
6197;SDS011;3132;42.622;23.328;2023-06-24T01:04:43;17.23;;;15.45;;
6197;SDS011;3132;42.622;23.328;2023-06-24T01:07:09;18.00;;;15.23;;
6197;SDS011;3132;42.622;23.328;2023-06-24T01:09:34;16.27;;;14.77;;
6197;SDS011;3132;42.622;23.328;2023-06-24T01:12:00;17.80;;;15.90;;
6197;SDS011;3132;42.622;23.328;2023-06-24T01:14:25;18.58;;;16.35;;
6197;SDS011;3132;42.622;23.328;2023-06-24T01:31:05;18.50;;;16.58;;
6197;SDS011;3132;42.622;23.328;2023-06-24T01:33:46;22.52;;;16.15;;
6197;SDS011;3132;42.622;23.328;2023-06-24T01:36:15;18.95;;;17.00;;
6197;SDS011;3132;42.622;23.328;2023-06-24T01:38:45;18.98;;;16.90;;
6197;SDS011;3132;42.622;23.328;2023-06-24T01:41:14;19.42;;;15.23;;
6197;SDS011;3132;42.622;23.328;2023-06-24T01:43:43;18.83;;;16.23;;
6197;SDS011;3132;42.622;23.328;2023-06-24T01:46:10;18.30;;;16.10;;
6197;SDS011;3132;42.622;23.328;2023-06-24T01:48:39;18.97;;;16.47;;
6197;SDS011;3132;42.622;23.328;2023-06-24T01:51:09;18.20;;;16.37;;
6197;SDS011;3132;42.622;23.328;2023-06-24T01:53:41;19.58;;;16.55;;
6197;SDS011;3132;42.622;23.328;2023-06-24T01:56:10;18.80;;;16.80;;
6197;SDS011;3132;42.622;23.328;2023-06-24T01:58:39;19.70;;;17.60;;
6197;SDS011;3132;42.622;23.328;2023-06-24T02:01:05;17.55;;;15.75;;
6197;SDS011;3132;42.622;23.328;2023-06-24T02:03:32;19.42;;;16.42;;
6197;SDS011;3132;42.622;23.328;2023-06-24T02:05:59;19.40;;;16.10;;
6197;SDS011;3132;42.622;23.328;2023-06-24T02:08:29;19.53;;;17.10;;
6197;SDS011;3132;42.622;23.328;2023-06-24T02:10:58;18.77;;;15.25;;
6197;SDS011;3132;42.622;23.328;2023-06-24T02:13:24;18.07;;;16.20;;
6197;SDS011;3132;42.622;23.328;2023-06-24T02:15:51;17.85;;;16.25;;
6197;SDS011;3132;42.622;23.328;2023-06-24T02:18:18;19.33;;;17.27;;
6197;SDS011;3132;42.622;23.328;2023-06-24T02:20:47;22.17;;;16.83;;
6197;SDS011;3132;42.622;23.328;2023-06-24T02:23:14;20.33;;;17.27;;
6197;SDS011;3132;42.622;23.328;2023-06-24T02:25:40;19.80;;;17.07;;
6197;SDS011;3132;42.622;23.328;2023-06-24T02:28:07;19.67;;;16.60;;
6197;SDS011;3132;42.622;23.328;2023-06-24T02:30:34;17.95;;;15.50;;
6197;SDS011;3132;42.622;23.328;2023-06-24T02:33:01;19.87;;;15.97;;
6197;SDS011;3132;42.622;23.328;2023-06-24T02:35:27;20.23;;;16.57;;
6197;SDS011;3132;42.622;23.328;2023-06-24T02:37:52;21.07;;;15.50;;
6197;SDS011;3132;42.622;23.328;2023-06-24T02:40:18;18.13;;;16.03;;
6197;SDS011;3132;42.622;23.328;2023-06-24T02:42:43;18.57;;;16.70;;
6197;SDS011;3132;42.622;23.328;2023-06-24T02:45:09;17.97;;;16.07;;
6197;SDS011;3132;42.622;23.328;2023-06-24T02:47:35;18.70;;;16.67;;
6197;SDS011;3132;42.622;23.328;2023-06-24T02:50:02;18.97;;;16.60;;
6197;SDS011;3132;42.622;23.328;2023-06-24T02:52:30;18.20;;;16.50;;
6197;SDS011;3132;42.622;23.328;2023-06-24T02:54:59;18.30;;;16.40;;
6197;SDS011;3132;42.622;23.328;2023-06-24T02:57:24;17.60;;;16.00;;
6197;SDS011;3132;42.622;23.328;2023-06-24T02:59:51;18.47;;;16.73;;
6197;SDS011;3132;42.622;23.328;2023-06-24T03:02:17;21.57;;;17.33;;
6197;SDS011;3132;42.622;23.328;2023-06-24T03:04:44;19.10;;;17.13;;
6197;SDS011;3132;42.622;23.328;2023-06-24T03:07:10;17.55;;;15.00;;
6197;SDS011;3132;42.622;23.328;2023-06-24T03:09:36;21.15;;;17.08;;
6197;SDS011;3132;42.622;23.328;2023-06-24T03:12:01;21.48;;;16.25;;
6197;SDS011;3132;42.622;23.328;2023-06-24T03:14:27;17.95;;;16.10;;
6197;SDS011;3132;42.622;23.328;2023-06-24T03:16:53;18.40;;;16.60;;
6197;SDS011;3132;42.622;23.328;2023-06-24T03:19:18;20.33;;;16.85;;
6197;SDS011;3132;42.622;23.328;2023-06-24T03:21:44;21.52;;;17.05;;
6197;SDS011;3132;42.622;23.328;2023-06-24T03:24:09;18.02;;;16.08;;
6197;SDS011;3132;42.622;23.328;2023-06-24T03:26:37;19.77;;;16.50;;
6197;SDS011;3132;42.622;23.328;2023-06-24T03:29:03;17.73;;;15.98;;
6197;SDS011;3132;42.622;23.328;2023-06-24T03:31:29;18.33;;;16.38;;
6197;SDS011;3132;42.622;23.328;2023-06-24T03:33:55;17.58;;;15.73;;
6197;SDS011;3132;42.622;23.328;2023-06-24T03:36:20;17.13;;;15.43;;
6197;SDS011;3132;42.622;23.328;2023-06-24T03:38:46;18.58;;;16.17;;
6197;SDS011;3132;42.622;23.328;2023-06-24T03:41:11;16.98;;;15.43;;
6197;SDS011;3132;42.622;23.328;2023-06-24T03:43:37;20.05;;;16.08;;
6197;SDS011;3132;42.622;23.328;2023-06-24T03:46:02;18.42;;;15.70;;
6197;SDS011;3132;42.622;23.328;2023-06-24T03:48:28;17.23;;;15.43;;
6197;SDS011;3132;42.622;23.328;2023-06-24T03:50:53;17.38;;;15.68;;
6197;SDS011;3132;42.622;23.328;2023-06-24T03:53:18;17.27;;;15.43;;
6197;SDS011;3132;42.622;23.328;2023-06-24T03:55:44;17.75;;;16.05;;
6197;SDS011;3132;42.622;23.328;2023-06-24T03:58:10;21.67;;;18.00;;
6197;SDS011;3132;42.622;23.328;2023-06-24T04:00:35;18.67;;;16.48;;
6197;SDS011;3132;42.622;23.328;2023-06-24T04:03:05;18.63;;;16.60;;
6197;SDS011;3132;42.622;23.328;2023-06-24T04:05:33;19.83;;;17.45;;
6197;SDS011;3132;42.622;23.328;2023-06-24T04:07:59;18.27;;;16.48;;
6197;SDS011;3132;42.622;23.328;2023-06-24T04:10:25;18.42;;;16.58;;
6197;SDS011;3132;42.622;23.328;2023-06-24T04:12:50;19.63;;;17.60;;
6197;SDS011;3132;42.622;23.328;2023-06-24T04:15:16;18.38;;;16.50;;
6197;SDS011;3132;42.622;23.328;2023-06-24T04:17:41;19.10;;;16.60;;
6197;SDS011;3132;42.622;23.328;2023-06-24T04:20:07;18.17;;;16.38;;
6197;SDS011;3132;42.622;23.328;2023-06-24T04:22:36;17.08;;;15.10;;
6197;SDS011;3132;42.622;23.328;2023-06-24T04:25:02;20.27;;;18.25;;
6197;SDS011;3132;42.622;23.328;2023-06-24T04:27:28;19.00;;;17.17;;
6197;SDS011;3132;42.622;23.328;2023-06-24T04:29:53;18.83;;;16.90;;
6197;SDS011;3132;42.622;23.328;2023-06-24T04:32:18;18.98;;;17.13;;
6197;SDS011;3132;42.622;23.328;2023-06-24T04:34:44;20.10;;;17.08;;
6197;SDS011;3132;42.622;23.328;2023-06-24T04:37:09;18.80;;;16.10;;
6197;SDS011;3132;42.622;23.328;2023-06-24T04:39:35;16.65;;;15.02;;
6197;SDS011;3132;42.622;23.328;2023-06-24T04:42:00;16.92;;;15.02;;
6197;SDS011;3132;42.622;23.328;2023-06-24T04:44:26;17.98;;;15.48;;
6197;SDS011;3132;42.622;23.328;2023-06-24T04:46:51;22.92;;;16.80;;
6197;SDS011;3132;42.622;23.328;2023-06-24T04:49:17;17.77;;;15.98;;
6197;SDS011;3132;42.622;23.328;2023-06-24T04:51:43;17.65;;;15.95;;
6197;SDS011;3132;42.622;23.328;2023-06-24T04:54:08;16.55;;;14.95;;
6197;SDS011;3132;42.622;23.328;2023-06-24T04:56:34;19.25;;;15.82;;
6197;SDS011;3132;42.622;23.328;2023-06-24T04:59:00;16.63;;;15.02;;
6197;SDS011;3132;42.622;23.328;2023-06-24T05:01:25;17.63;;;16.02;;
6197;SDS011;3132;42.622;23.328;2023-06-24T05:03:51;15.65;;;14.20;;
6197;SDS011;3132;42.622;23.328;2023-06-24T05:06:16;18.38;;;16.50;;
6197;SDS011;3132;42.622;23.328;2023-06-24T05:08:42;17.90;;;15.75;;
6197;SDS011;3132;42.622;23.328;2023-06-24T05:11:07;18.90;;;16.02;;
6197;SDS011;3132;42.622;23.328;2023-06-24T05:13:32;16.30;;;14.68;;
6197;SDS011;3132;42.622;23.328;2023-06-24T05:15:58;19.80;;;17.73;;
6197;SDS011;3132;42.622;23.328;2023-06-24T05:18:23;21.73;;;16.55;;
6197;SDS011;3132;42.622;23.328;2023-06-24T05:20:48;19.70;;;16.50;;
6197;SDS011;3132;42.622;23.328;2023-06-24T05:23:14;18.10;;;15.82;;
6197;SDS011;3132;42.622;23.328;2023-06-24T05:25:40;19.30;;;17.20;;
6197;SDS011;3132;42.622;23.328;2023-06-24T05:28:05;18.83;;;16.50;;
6197;SDS011;3132;42.622;23.328;2023-06-24T05:30:30;18.85;;;15.63;;
6197;SDS011;3132;42.622;23.328;2023-06-24T05:32:56;20.30;;;16.33;;
6197;SDS011;3132;42.622;23.328;2023-06-24T05:35:21;21.33;;;16.75;;
6197;SDS011;3132;42.622;23.328;2023-06-24T05:37:47;17.83;;;15.95;;
6197;SDS011;3132;42.622;23.328;2023-06-24T05:40:12;19.40;;;16.63;;
6197;SDS011;3132;42.622;23.328;2023-06-24T05:42:38;20.20;;;16.83;;
6197;SDS011;3132;42.622;23.328;2023-06-24T05:45:04;17.52;;;15.75;;
6197;SDS011;3132;42.622;23.328;2023-06-24T05:47:31;19.52;;;15.27;;
6197;SDS011;3132;42.622;23.328;2023-06-24T05:49:56;16.23;;;14.57;;
6197;SDS011;3132;42.622;23.328;2023-06-24T05:52:22;16.75;;;14.32;;
6197;SDS011;3132;42.622;23.328;2023-06-24T05:54:47;18.30;;;14.00;;
6197;SDS011;3132;42.622;23.328;2023-06-24T05:57:12;13.85;;;12.52;;
6197;SDS011;3132;42.622;23.328;2023-06-24T05:59:38;14.82;;;13.32;;
6197;SDS011;3132;42.622;23.328;2023-06-24T06:02:04;13.43;;;12.32;;
6197;SDS011;3132;42.622;23.328;2023-06-24T06:04:29;12.95;;;11.95;;
6197;SDS011;3132;42.622;23.328;2023-06-24T06:06:54;14.35;;;12.95;;
6197;SDS011;3132;42.622;23.328;2023-06-24T06:09:21;14.02;;;12.68;;
6197;SDS011;3132;42.622;23.328;2023-06-24T06:11:47;14.30;;;12.80;;
6197;SDS011;3132;42.622;23.328;2023-06-24T06:14:13;14.13;;;12.82;;
6197;SDS011;3132;42.622;23.328;2023-06-24T06:16:38;15.63;;;14.05;;
6197;SDS011;3132;42.622;23.328;2023-06-24T06:19:04;14.57;;;13.13;;
6197;SDS011;3132;42.622;23.328;2023-06-24T06:21:29;15.45;;;13.65;;
6197;SDS011;3132;42.622;23.328;2023-06-24T06:23:54;16.10;;;14.13;;
6197;SDS011;3132;42.622;23.328;2023-06-24T06:26:20;16.45;;;14.85;;
6197;SDS011;3132;42.622;23.328;2023-06-24T06:28:46;14.45;;;13.18;;
6197;SDS011;3132;42.622;23.328;2023-06-24T06:31:13;13.52;;;12.32;;
6197;SDS011;3132;42.622;23.328;2023-06-24T06:33:38;16.25;;;14.60;;
6197;SDS011;3132;42.622;23.328;2023-06-24T06:36:04;14.77;;;13.30;;
6197;SDS011;3132;42.622;23.328;2023-06-24T06:38:29;14.57;;;13.27;;
6197;SDS011;3132;42.622;23.328;2023-06-24T06:40:55;14.82;;;13.43;;
6197;SDS011;3132;42.622;23.328;2023-06-24T06:43:21;15.05;;;13.60;;
6197;SDS011;3132;42.622;23.328;2023-06-24T06:45:46;16.10;;;14.40;;
6197;SDS011;3132;42.622;23.328;2023-06-24T06:48:12;15.50;;;14.07;;
6197;SDS011;3132;42.622;23.328;2023-06-24T06:50:37;15.18;;;13.60;;
6197;SDS011;3132;42.622;23.328;2023-06-24T06:53:02;16.38;;;14.82;;
6197;SDS011;3132;42.622;23.328;2023-06-24T06:55:28;16.50;;;14.93;;
6197;SDS011;3132;42.622;23.328;2023-06-24T06:57:54;18.00;;;16.20;;
6197;SDS011;3132;42.622;23.328;2023-06-24T07:00:20;17.27;;;15.30;;
6197;SDS011;3132;42.622;23.328;2023-06-24T07:02:45;18.05;;;16.33;;
6197;SDS011;3132;42.622;23.328;2023-06-24T07:05:11;18.08;;;16.38;;
6197;SDS011;3132;42.622;23.328;2023-06-24T07:07:37;19.30;;;17.25;;
6197;SDS011;3132;42.622;23.328;2023-06-24T07:10:03;20.08;;;16.73;;
6197;SDS011;3132;42.622;23.328;2023-06-24T07:12:29;21.50;;;16.67;;
6197;SDS011;3132;42.622;23.328;2023-06-24T07:14:54;18.88;;;17.02;;
6197;SDS011;3132;42.622;23.328;2023-06-24T07:17:19;18.90;;;17.05;;
6197;SDS011;3132;42.622;23.328;2023-06-24T07:19:45;19.67;;;17.58;;
6197;SDS011;3132;42.622;23.328;2023-06-24T07:22:10;21.55;;;17.02;;
6197;SDS011;3132;42.622;23.328;2023-06-24T07:24:36;19.35;;;17.48;;
6197;SDS011;3132;42.622;23.328;2023-06-24T07:27:01;20.77;;;16.65;;
6197;SDS011;3132;42.622;23.328;2023-06-24T07:29:26;23.48;;;17.27;;
6197;SDS011;3132;42.622;23.328;2023-06-24T07:31:52;23.02;;;18.45;;
6197;SDS011;3132;42.622;23.328;2023-06-24T07:34:17;22.05;;;18.23;;
6197;SDS011;3132;42.622;23.328;2023-06-24T07:36:42;24.55;;;18.08;;
6197;SDS011;3132;42.622;23.328;2023-06-24T07:39:08;19.70;;;17.30;;
6197;SDS011;3132;42.622;23.328;2023-06-24T07:41:33;20.73;;;17.25;;
6197;SDS011;3132;42.622;23.328;2023-06-24T07:43:59;20.52;;;18.02;;
6197;SDS011;3132;42.622;23.328;2023-06-24T07:46:24;21.00;;;18.30;;
6197;SDS011;3132;42.622;23.328;2023-06-24T07:48:52;19.98;;;17.48;;
6197;SDS011;3132;42.622;23.328;2023-06-24T07:51:17;25.42;;;18.45;;
6197;SDS011;3132;42.622;23.328;2023-06-24T07:53:43;21.38;;;19.17;;
6197;SDS011;3132;42.622;23.328;2023-06-24T07:56:08;21.60;;;19.23;;
6197;SDS011;3132;42.622;23.328;2023-06-24T07:58:33;19.88;;;17.85;;
6197;SDS011;3132;42.622;23.328;2023-06-24T08:01:00;20.25;;;18.38;;
6197;SDS011;3132;42.622;23.328;2023-06-24T08:03:25;19.85;;;17.75;;
6197;SDS011;3132;42.622;23.328;2023-06-24T08:05:50;22.50;;;20.08;;
6197;SDS011;3132;42.622;23.328;2023-06-24T08:08:16;23.00;;;19.58;;
6197;SDS011;3132;42.622;23.328;2023-06-24T08:10:43;21.20;;;18.95;;
6197;SDS011;3132;42.622;23.328;2023-06-24T08:13:08;21.88;;;18.73;;
6197;SDS011;3132;42.622;23.328;2023-06-24T08:15:34;19.75;;;17.85;;
6197;SDS011;3132;42.622;23.328;2023-06-24T08:17:59;24.30;;;18.17;;
6197;SDS011;3132;42.622;23.328;2023-06-24T08:20:25;22.15;;;19.30;;
6197;SDS011;3132;42.622;23.328;2023-06-24T08:22:50;25.35;;;19.13;;
6197;SDS011;3132;42.622;23.328;2023-06-24T08:25:16;21.02;;;18.85;;
6197;SDS011;3132;42.622;23.328;2023-06-24T08:27:41;19.83;;;17.88;;
6197;SDS011;3132;42.622;23.328;2023-06-24T08:30:08;19.95;;;17.80;;
6197;SDS011;3132;42.622;23.328;2023-06-24T08:32:34;21.42;;;18.55;;
6197;SDS011;3132;42.622;23.328;2023-06-24T08:34:59;20.95;;;17.00;;
6197;SDS011;3132;42.622;23.328;2023-06-24T08:37:25;19.52;;;17.58;;
6197;SDS011;3132;42.622;23.328;2023-06-24T08:39:50;23.75;;;17.52;;
6197;SDS011;3132;42.622;23.328;2023-06-24T08:42:15;21.27;;;19.08;;
6197;SDS011;3132;42.622;23.328;2023-06-24T08:44:41;23.90;;;19.98;;
6197;SDS011;3132;42.622;23.328;2023-06-24T08:47:06;19.02;;;17.17;;
6197;SDS011;3132;42.622;23.328;2023-06-24T08:49:32;19.05;;;17.15;;
6197;SDS011;3132;42.622;23.328;2023-06-24T08:52:03;19.50;;;17.33;;
6197;SDS011;3132;42.622;23.328;2023-06-24T08:54:34;20.73;;;18.35;;
6197;SDS011;3132;42.622;23.328;2023-06-24T08:57:00;20.25;;;17.88;;
6197;SDS011;3132;42.622;23.328;2023-06-24T08:59:29;19.67;;;17.20;;
6197;SDS011;3132;42.622;23.328;2023-06-24T09:01:56;18.77;;;16.83;;
6197;SDS011;3132;42.622;23.328;2023-06-24T09:04:21;18.08;;;16.25;;
6197;SDS011;3132;42.622;23.328;2023-06-24T09:06:46;18.40;;;16.65;;
6197;SDS011;3132;42.622;23.328;2023-06-24T09:09:18;19.73;;;17.83;;
6197;SDS011;3132;42.622;23.328;2023-06-24T09:11:57;18.27;;;16.48;;
6197;SDS011;3132;42.622;23.328;2023-06-24T09:14:26;19.23;;;17.40;;
6197;SDS011;3132;42.622;23.328;2023-06-24T09:19:27;18.67;;;16.85;;
6197;SDS011;3132;42.622;23.328;2023-06-24T09:21:54;19.25;;;17.48;;
6197;SDS011;3132;42.622;23.328;2023-06-24T09:24:20;24.80;;;18.95;;
6197;SDS011;3132;42.622;23.328;2023-06-24T09:26:45;49.60;;;24.48;;
6197;SDS011;3132;42.622;23.328;2023-06-24T09:29:12;19.40;;;17.50;;
6197;SDS011;3132;42.622;23.328;2023-06-24T09:31:50;18.45;;;16.65;;
6197;SDS011;3132;42.622;23.328;2023-06-24T09:34:20;19.35;;;17.50;;
6197;SDS011;3132;42.622;23.328;2023-06-24T09:36:51;18.67;;;15.77;;
6197;SDS011;3132;42.622;23.328;2023-06-24T09:39:17;17.48;;;15.75;;
6197;SDS011;3132;42.622;23.328;2023-06-24T09:41:43;18.63;;;16.83;;
6197;SDS011;3132;42.622;23.328;2023-06-24T09:44:14;18.52;;;16.77;;
6197;SDS011;3132;42.622;23.328;2023-06-24T09:46:41;18.02;;;16.13;;
6197;SDS011;3132;42.622;23.328;2023-06-24T09:49:08;26.52;;;18.10;;
6197;SDS011;3132;42.622;23.328;2023-06-24T09:51:35;18.17;;;16.42;;
6197;SDS011;3132;42.622;23.328;2023-06-24T09:54:05;16.73;;;14.93;;
6197;SDS011;3132;42.622;23.328;2023-06-24T09:56:31;17.42;;;15.63;;
6197;SDS011;3132;42.622;23.328;2023-06-24T09:59:03;16.48;;;14.77;;
6197;SDS011;3132;42.622;23.328;2023-06-24T10:01:29;19.15;;;15.30;;
6197;SDS011;3132;42.622;23.328;2023-06-24T10:03:57;17.60;;;15.40;;
6197;SDS011;3132;42.622;23.328;2023-06-24T10:06:24;17.50;;;15.73;;
6197;SDS011;3132;42.622;23.328;2023-06-24T10:08:50;17.10;;;15.25;;
6197;SDS011;3132;42.622;23.328;2023-06-24T10:11:17;17.33;;;15.57;;
6197;SDS011;3132;42.622;23.328;2023-06-24T10:13:42;16.92;;;15.05;;
6197;SDS011;3132;42.622;23.328;2023-06-24T10:16:08;16.20;;;14.60;;
6197;SDS011;3132;42.622;23.328;2023-06-24T10:18:34;18.67;;;14.50;;
6197;SDS011;3132;42.622;23.328;2023-06-24T10:21:01;17.33;;;15.57;;
6197;SDS011;3132;42.622;23.328;2023-06-24T10:23:40;17.75;;;15.90;;
6197;SDS011;3132;42.622;23.328;2023-06-24T10:26:10;16.88;;;15.23;;
6197;SDS011;3132;42.622;23.328;2023-06-24T10:36:59;15.65;;;14.25;;
6197;SDS011;3132;42.622;23.328;2023-06-24T10:39:45;18.17;;;15.52;;
6197;SDS011;3132;42.622;23.328;2023-06-24T10:44:59;19.15;;;17.50;;
6197;SDS011;3132;42.622;23.328;2023-06-24T10:47:26;19.38;;;17.40;;
6197;SDS011;3132;42.622;23.328;2023-06-24T10:49:53;16.23;;;14.70;;
6197;SDS011;3132;42.622;23.328;2023-06-24T10:52:19;28.88;;;18.23;;
6197;SDS011;3132;42.622;23.328;2023-06-24T10:54:49;16.83;;;14.93;;
6197;SDS011;3132;42.622;23.328;2023-06-24T10:57:20;14.80;;;13.27;;
6197;SDS011;3132;42.622;23.328;2023-06-24T10:59:48;16.45;;;14.77;;
6197;SDS011;3132;42.622;23.328;2023-06-24T11:02:17;15.27;;;13.77;;
6197;SDS011;3132;42.622;23.328;2023-06-24T11:04:44;16.15;;;13.77;;
6197;SDS011;3132;42.622;23.328;2023-06-24T11:07:17;16.92;;;13.00;;
6197;SDS011;3132;42.622;23.328;2023-06-24T11:09:53;17.30;;;15.70;;
6197;SDS011;3132;42.622;23.328;2023-06-24T11:12:24;15.68;;;13.93;;
6197;SDS011;3132;42.622;23.328;2023-06-24T11:14:51;14.45;;;12.73;;
6197;SDS011;3132;42.622;23.328;2023-06-24T11:17:19;15.23;;;13.90;;
6197;SDS011;3132;42.622;23.328;2023-06-24T11:19:44;14.07;;;12.77;;
6197;SDS011;3132;42.622;23.328;2023-06-24T11:22:10;15.48;;;13.80;;
6197;SDS011;3132;42.622;23.328;2023-06-24T11:24:35;15.38;;;13.98;;
6197;SDS011;3132;42.622;23.328;2023-06-24T11:27:01;15.10;;;13.55;;
6197;SDS011;3132;42.622;23.328;2023-06-24T11:29:29;14.25;;;13.00;;
6197;SDS011;3132;42.622;23.328;2023-06-24T11:31:55;14.27;;;12.98;;
6197;SDS011;3132;42.622;23.328;2023-06-24T11:34:21;14.63;;;13.27;;
6197;SDS011;3132;42.622;23.328;2023-06-24T11:36:47;15.40;;;13.60;;
6197;SDS011;3132;42.622;23.328;2023-06-24T11:41:47;13.32;;;12.07;;
6197;SDS011;3132;42.622;23.328;2023-06-24T11:44:13;14.00;;;12.77;;
6197;SDS011;3132;42.622;23.328;2023-06-24T11:46:38;14.32;;;12.90;;
6197;SDS011;3132;42.622;23.328;2023-06-24T11:51:30;16.52;;;13.88;;
6197;SDS011;3132;42.622;23.328;2023-06-24T11:53:58;17.02;;;13.10;;
6197;SDS011;3132;42.622;23.328;2023-06-24T11:56:35;13.43;;;12.20;;
6197;SDS011;3132;42.622;23.328;2023-06-24T11:59:04;12.98;;;11.98;;
6197;SDS011;3132;42.622;23.328;2023-06-24T12:01:33;14.85;;;12.35;;
6197;SDS011;3132;42.622;23.328;2023-06-24T12:04:09;13.90;;;12.45;;
6197;SDS011;3132;42.622;23.328;2023-06-24T12:06:35;13.63;;;12.32;;
6197;SDS011;3132;42.622;23.328;2023-06-24T12:09:00;15.57;;;13.82;;
6197;SDS011;3132;42.622;23.328;2023-06-24T12:11:26;15.38;;;13.98;;
6197;SDS011;3132;42.622;23.328;2023-06-24T12:13:51;14.88;;;13.35;;
6197;SDS011;3132;42.622;23.328;2023-06-24T12:16:18;13.82;;;12.63;;
6197;SDS011;3132;42.622;23.328;2023-06-24T12:18:43;14.15;;;12.68;;
6197;SDS011;3132;42.622;23.328;2023-06-24T12:21:09;15.52;;;13.95;;
6197;SDS011;3132;42.622;23.328;2023-06-24T12:23:35;14.15;;;12.77;;
6197;SDS011;3132;42.622;23.328;2023-06-24T12:26:00;13.98;;;12.82;;
6197;SDS011;3132;42.622;23.328;2023-06-24T12:28:25;15.15;;;12.98;;
6197;SDS011;3132;42.622;23.328;2023-06-24T12:30:51;15.65;;;13.23;;
6197;SDS011;3132;42.622;23.328;2023-06-24T12:33:16;15.30;;;12.48;;
6197;SDS011;3132;42.622;23.328;2023-06-24T12:35:44;15.07;;;13.55;;
6197;SDS011;3132;42.622;23.328;2023-06-24T12:38:10;14.48;;;13.15;;
6197;SDS011;3132;42.622;23.328;2023-06-24T12:40:36;14.85;;;13.38;;
6197;SDS011;3132;42.622;23.328;2023-06-24T12:43:01;15.25;;;13.82;;
6197;SDS011;3132;42.622;23.328;2023-06-24T12:45:27;15.32;;;13.73;;
6197;SDS011;3132;42.622;23.328;2023-06-24T12:47:52;15.27;;;13.25;;
6197;SDS011;3132;42.622;23.328;2023-06-24T12:50:17;16.98;;;15.18;;
6197;SDS011;3132;42.622;23.328;2023-06-24T12:52:43;15.50;;;13.95;;
6197;SDS011;3132;42.622;23.328;2023-06-24T12:55:08;17.55;;;15.65;;
6197;SDS011;3132;42.622;23.328;2023-06-24T12:57:34;16.52;;;15.05;;
6197;SDS011;3132;42.622;23.328;2023-06-24T13:00:00;16.08;;;14.35;;
6197;SDS011;3132;42.622;23.328;2023-06-24T13:02:25;16.98;;;14.88;;
6197;SDS011;3132;42.622;23.328;2023-06-24T13:04:51;15.82;;;14.40;;
6197;SDS011;3132;42.622;23.328;2023-06-24T13:07:16;15.35;;;13.85;;
6197;SDS011;3132;42.622;23.328;2023-06-24T13:09:42;15.48;;;13.88;;
6197;SDS011;3132;42.622;23.328;2023-06-24T13:12:07;21.85;;;19.52;;
6197;SDS011;3132;42.622;23.328;2023-06-24T13:14:33;28.40;;;22.25;;
6197;SDS011;3132;42.622;23.328;2023-06-24T13:16:59;24.38;;;18.70;;
6197;SDS011;3132;42.622;23.328;2023-06-24T13:19:24;17.63;;;15.80;;
6197;SDS011;3132;42.622;23.328;2023-06-24T13:21:50;18.15;;;15.75;;
6197;SDS011;3132;42.622;23.328;2023-06-24T13:24:15;19.77;;;17.67;;
6197;SDS011;3132;42.622;23.328;2023-06-24T13:26:41;18.10;;;15.45;;
6197;SDS011;3132;42.622;23.328;2023-06-24T13:29:06;19.95;;;18.02;;
6197;SDS011;3132;42.622;23.328;2023-06-24T13:31:32;15.30;;;13.85;;
6197;SDS011;3132;42.622;23.328;2023-06-24T13:33:58;13.70;;;12.45;;
6197;SDS011;3132;42.622;23.328;2023-06-24T13:36:34;16.17;;;14.43;;
6197;SDS011;3132;42.622;23.328;2023-06-24T13:39:01;18.52;;;16.10;;
6197;SDS011;3132;42.622;23.328;2023-06-24T13:41:31;19.65;;;15.15;;
6197;SDS011;3132;42.622;23.328;2023-06-24T13:44:03;17.58;;;14.50;;
6197;SDS011;3132;42.622;23.328;2023-06-24T13:46:29;14.70;;;12.75;;
6197;SDS011;3132;42.622;23.328;2023-06-24T13:48:56;19.05;;;11.85;;
6197;SDS011;3132;42.622;23.328;2023-06-24T13:51:23;14.65;;;12.93;;
6197;SDS011;3132;42.622;23.328;2023-06-24T13:53:49;16.73;;;13.55;;
6197;SDS011;3132;42.622;23.328;2023-06-24T13:56:19;19.65;;;13.60;;
6197;SDS011;3132;42.622;23.328;2023-06-24T13:58:45;14.65;;;13.10;;
6197;SDS011;3132;42.622;23.328;2023-06-24T14:01:11;19.50;;;12.50;;
6197;SDS011;3132;42.622;23.328;2023-06-24T14:03:37;17.20;;;12.45;;
6197;SDS011;3132;42.622;23.328;2023-06-24T14:06:03;19.25;;;12.70;;
6197;SDS011;3132;42.622;23.328;2023-06-24T14:08:29;15.10;;;13.38;;
6197;SDS011;3132;42.622;23.328;2023-06-24T14:10:56;16.30;;;12.60;;
6197;SDS011;3132;42.622;23.328;2023-06-24T14:13:22;15.80;;;13.45;;
6197;SDS011;3132;42.622;23.328;2023-06-24T14:15:48;18.98;;;13.27;;
6197;SDS011;3132;42.622;23.328;2023-06-24T14:18:13;20.70;;;14.40;;
6197;SDS011;3132;42.622;23.328;2023-06-24T14:20:39;19.48;;;13.38;;
6197;SDS011;3132;42.622;23.328;2023-06-24T14:23:04;16.67;;;13.45;;
6197;SDS011;3132;42.622;23.328;2023-06-24T14:25:30;17.38;;;13.43;;
6197;SDS011;3132;42.622;23.328;2023-06-24T14:27:56;15.18;;;13.32;;
6197;SDS011;3132;42.622;23.328;2023-06-24T14:30:21;14.38;;;12.90;;
6197;SDS011;3132;42.622;23.328;2023-06-24T14:32:47;16.10;;;13.80;;
6197;SDS011;3132;42.622;23.328;2023-06-24T14:35:12;14.73;;;13.30;;
6197;SDS011;3132;42.622;23.328;2023-06-24T14:37:38;16.15;;;13.07;;
6197;SDS011;3132;42.622;23.328;2023-06-24T14:40:03;17.40;;;13.15;;
6197;SDS011;3132;42.622;23.328;2023-06-24T14:42:29;19.23;;;14.18;;
6197;SDS011;3132;42.622;23.328;2023-06-24T14:44:55;20.02;;;14.02;;
6197;SDS011;3132;42.622;23.328;2023-06-24T14:47:20;20.55;;;15.23;;
6197;SDS011;3132;42.622;23.328;2023-06-24T14:49:45;20.67;;;13.52;;
6197;SDS011;3132;42.622;23.328;2023-06-24T14:52:11;19.00;;;14.13;;
6197;SDS011;3132;42.622;23.328;2023-06-24T14:54:36;15.77;;;13.45;;
6197;SDS011;3132;42.622;23.328;2023-06-24T14:57:02;16.77;;;15.05;;
6197;SDS011;3132;42.622;23.328;2023-06-24T14:59:27;17.00;;;15.43;;
6197;SDS011;3132;42.622;23.328;2023-06-24T15:01:52;22.85;;;15.50;;